Home > Products > Valid Products > MTR

000
SAUS45 KTWC 281352
MTRSAD
METAR KSAD 281351Z AUTO 00000KT 10SM CLR 19/M04 A3002 RMK AO2 SLP117
T01941044





000
SAUS45 KTWC 281253
MTRSAD
METAR KSAD 281251Z AUTO 13005KT 10SM CLR 15/M05 A3001 RMK AO2 SLP118
T01501050





000
SAUS45 KTWC 281253
MTRSAD
METAR KSAD 281251Z AUTO 13005KT 10SM CLR 15/M05 A3001 RMK AO2 SLP118
T01501050





000
SAUS45 KTWC 281153
MTRSAD
METAR KSAD 281151Z AUTO 09006KT 10SM CLR 14/M06 A3000 RMK AO2 SLP111
T01391056 10244 20139 53012





000
SAUS45 KTWC 281153
MTRSAD
METAR KSAD 281151Z AUTO 09006KT 10SM CLR 14/M06 A3000 RMK AO2 SLP111
T01391056 10244 20139 53012





000
SAUS45 KTWC 281052
MTRSAD
METAR KSAD 281051Z AUTO 12005KT 10SM CLR 16/M04 A2999 RMK AO2 SLP106
T01561039





000
SAUS45 KTWC 280952
MTRSAD
METAR KSAD 280951Z AUTO 32006KT 10SM CLR 19/M04 A2997 RMK AO2 SLP096
T01891044





000
SAUS45 KTWC 280853
MTRSAD
METAR KSAD 280851Z AUTO 32008KT 10SM CLR 22/M04 A2996 RMK AO2 SLP092
T02171039 51005





000
SAUS45 KTWC 280752
MTRSAD
METAR KSAD 280751Z AUTO 32007KT 10SM CLR 21/M04 A2996 RMK AO2 SLP094
T02061044





000
SAUS45 KTWC 280652
MTRSAD
METAR KSAD 280651Z AUTO 31010KT 10SM CLR 23/M04 A2996 RMK AO2 SLP092
T02281039 403390150





000
SAUS45 KTWC 280652
MTRSAD
METAR KSAD 280651Z AUTO 31010KT 10SM CLR 23/M04 A2996 RMK AO2 SLP092
T02281039 403390150





000
SAUS45 KTWC 280552
MTRSAD
METAR KSAD 280551Z AUTO 30010KT 10SM CLR 24/M04 A2994 RMK AO2 SLP088
T02441044 10339 20244 51014





000
SAUS45 KTWC 280452
MTRSAD
METAR KSAD 280451Z AUTO 32008KT 10SM CLR 26/M06 A2993 RMK AO2 SLP084
T02561056





000
SAUS45 KTWC 280352
MTRSAD
METAR KSAD 280351Z AUTO 28008KT 10SM CLR 27/M06 A2991 RMK AO2 SLP077
T02671061





000
SAUS45 KTWC 280352
MTRSAD
METAR KSAD 280351Z AUTO 28008KT 10SM CLR 27/M06 A2991 RMK AO2 SLP077
T02671061





000
SAUS45 KTWC 280253
MTRSAD
METAR KSAD 280251Z AUTO 31011KT 10SM CLR 29/M07 A2990 RMK AO2 SLP073
T02891067 53007





000
SAUS45 KTWC 280253
MTRSAD
METAR KSAD 280251Z AUTO 31011KT 10SM CLR 29/M07 A2990 RMK AO2 SLP073
T02891067 53007





000
SAUS45 KTWC 280153
MTRSAD
METAR KSAD 280151Z AUTO 28010KT 10SM FEW120 31/M11 A2989 RMK AO2
SLP070 T03061106





000
SAUS45 KTWC 280053
MTRSAD
METAR KSAD 280051Z AUTO 32005KT 10SM SCT110 32/M10 A2987 RMK AO2
SLP069 T03171100





000
SAUS45 KTWC 280053
MTRSAD
METAR KSAD 280051Z AUTO 32005KT 10SM SCT110 32/M10 A2987 RMK AO2
SLP069 T03171100





000
SAUS45 KTWC 272352
MTRSAD
METAR KSAD 272351Z AUTO 10SM BKN110 33/M09 A2988 RMK AO2 SLP067
T03331094 10339 20278 56021





000
SAUS45 KTWC 272253
MTRSAD
METAR KSAD 272251Z AUTO 16012G17KT 10SM SCT110 33/M09 A2988 RMK AO2
SLP070 T03331089





000
SAUS45 KTWC 272152
MTRSAD
METAR KSAD 272151Z AUTO 19008G20KT 150V220 10SM FEW110 33/M10 A2991
RMK AO2 SLP080 T03281100





000
SAUS45 KTWC 272052
MTRSAD
METAR KSAD 272051Z AUTO 17009G18KT 10SM CLR 32/M11 A2994 RMK AO2
SLP089 T03171111 58019





000
SAUS45 KTWC 271952
MTRSAD
METAR KSAD 271951Z AUTO VRB04G17KT 10SM CLR 31/M03 A2997 RMK AO2
SLP101 T03061033





000
SAUS45 KTWC 271852
MTRSAD
METAR KSAD 271851Z AUTO 17011G16KT 10SM CLR 29/M02 A2999 RMK AO2
SLP108 T02941022





000
SAUS45 KTWC 271852
MTRSAD
METAR KSAD 271851Z AUTO 17011G16KT 10SM CLR 29/M02 A2999 RMK AO2
SLP108 T02941022





000
SAUS45 KTWC 271752
MTRSAD
METAR KSAD 271751Z AUTO 15006KT 10SM CLR 28/00 A3000 RMK AO2 SLP111
T02780000 10283 20150 58004





000
SAUS45 KTWC 271652
MTRSAD
METAR KSAD 271651Z AUTO 16006KT 10SM CLR 27/00 A3002 RMK AO2 SLP113
T02670000





000
SAUS45 KTWC 271552
MTRSAD
METAR KSAD 271551Z AUTO 15007KT 10SM CLR 24/M01 A3003 RMK AO2 SLP118
T02391006





000
SAUS45 KTWC 271452
MTRSAD
METAR KSAD 271451Z AUTO 16004KT 10SM CLR 22/01 A3002 RMK AO2 SLP117
T02170006 51008





000
SAUS45 KTWC 271353
MTRSAD
METAR KSAD 271351Z AUTO 13004KT 10SM CLR 19/M01 A3001 RMK AO2 SLP115
T01891006





000
SAUS45 KTWC 271252
MTRSAD
METAR KSAD 271251Z AUTO 13003KT 10SM CLR 15/M02 A3000 RMK AO2 SLP113
T01501017 $





000
SAUS45 KTWC 271252
MTRSAD
METAR KSAD 271251Z AUTO 13003KT 10SM CLR 15/M02 A3000 RMK AO2 SLP113
T01501017 $





000
SAUS45 KTWC 271153
MTRSAD
METAR KSAD 271151Z AUTO 14004KT 10SM CLR 17/M01 A2999 RMK AO2 SLP107
T01671011 10222 20156 51010 $





000
SAUS45 KTWC 271052
MTRSAD
METAR KSAD 271051Z AUTO 10006KT 10SM CLR 16/M02 A2998 RMK AO2 SLP105
T01561017 $





000
SAUS45 KTWC 270952
MTRSAD
METAR KSAD 270951Z AUTO 14003KT 10SM CLR 17/00 A2997 RMK AO2 SLP100
T01720000





000
SAUS45 KTWC 270952
MTRSAD
METAR KSAD 270951Z AUTO 14003KT 10SM CLR 17/00 A2997 RMK AO2 SLP100
T01720000





000
SAUS45 KTWC 270852
MTRSAD
METAR KSAD 270851Z AUTO 32007KT 10SM CLR 19/M01 A2996 RMK AO2 SLP096
T01941006 51004





000
SAUS45 KTWC 270752
MTRSAD
METAR KSAD 270751Z AUTO 33005KT 10SM CLR 18/00 A2995 RMK AO2 SLP097
T01830000





000
SAUS45 KTWC 270652
MTRSAD
METAR KSAD 270651Z AUTO 31004KT 10SM CLR 19/00 A2995 RMK AO2 SLP094
T01940000 403330128





000
SAUS45 KTWC 270552
MTRSAD
METAR KSAD 270551Z AUTO 29007KT 10SM CLR 22/M01 A2995 RMK AO2 SLP091
T02221006 10328 20222 51014





000
SAUS45 KTWC 270452
MTRSAD
METAR KSAD 270451Z AUTO 30010KT 10SM CLR 25/M01 A2995 RMK AO2 SLP089
T02501011





000
SAUS45 KTWC 270353
MTRSAD
METAR KSAD 270351Z AUTO 32008KT 10SM CLR 26/M02 A2993 RMK AO2 SLP085
T02561017





000
SAUS45 KTWC 270253
MTRSAD
METAR KSAD 270251Z AUTO 31007KT 10SM CLR 27/M01 A2990 RMK AO2 SLP079
T02671011 53002





000
SAUS45 KTWC 270253
MTRSAD
METAR KSAD 270251Z AUTO 31007KT 10SM CLR 27/M01 A2990 RMK AO2 SLP079
T02671011 53002





000
SAUS45 KTWC 270152
MTRSAD
METAR KSAD 270151Z AUTO 33006KT 10SM FEW110 29/M02 A2989 RMK AO2
SLP076 T02941017





000
SAUS45 KTWC 270052
MTRSAD
METAR KSAD 270051Z AUTO 31011G15KT 10SM FEW110 32/M02 A2988 RMK AO2
SLP073 T03171017





000
SAUS45 KTWC 270052
MTRSAD
METAR KSAD 270051Z AUTO 31011G15KT 10SM FEW110 32/M02 A2988 RMK AO2
SLP073 T03171017





000
SAUS45 KTWC 262353
MTRSAD
METAR KSAD 262351Z AUTO 30007KT 280V340 10SM CLR 33/M02 A2990 RMK
AO2 SLP077 T03281022 10333 20272 56017





000
SAUS45 KTWC 262253
MTRSAD
METAR KSAD 262251Z AUTO 28007KT 190V330 10SM CLR 32/M02 A2991 RMK
AO2 SLP083 T03221022





000
SAUS45 KTWC 262253
MTRSAD
METAR KSAD 262251Z AUTO 28007KT 190V330 10SM CLR 32/M02 A2991 RMK
AO2 SLP083 T03221022





000
SAUS45 KTWC 262152
MTRSAD
METAR KSAD 262151Z AUTO 10SM CLR 33/M02 A2993 RMK AO2 SLP086
T03281017





000
SAUS45 KTWC 262052
MTRSAD
METAR KSAD 262051Z AUTO VRB05KT 10SM CLR 31/00 A2995 RMK AO2 SLP096
T03060000 58021





000
SAUS45 KTWC 261952
MTRSAD
METAR KSAD 261951Z AUTO VRB03KT 10SM CLR 29/01 A2997 RMK AO2 SLP103
T02890006





000
SAUS45 KTWC 261852
MTRSAD
METAR KSAD 261851Z AUTO 25006KT 10SM CLR 29/01 A2999 RMK AO2 SLP110
T02890011





000
SAUS45 KTWC 261752
MTRSAD
METAR KSAD 261751Z AUTO VRB04KT 10SM CLR 27/02 A3002 RMK AO2 SLP119
T02720022 10278 20128 56008





000
SAUS45 KTWC 261653
MTRSAD
METAR KSAD 261651Z AUTO 20005KT 10SM CLR 26/03 A3002 RMK AO2 SLP121
T02560033





000
SAUS45 KTWC 261552
MTRSAD
METAR KSAD 261551Z AUTO VRB04KT 10SM CLR 23/03 A3003 RMK AO2 SLP125
T02330028





000
SAUS45 KTWC 261452
MTRSAD
METAR KSAD 261451Z AUTO VRB03KT 10SM CLR 20/02 A3005 RMK AO2 SLP130
T02000022 51017





000
SAUS45 KTWC 261352
MTRSAD
METAR KSAD 261351Z AUTO 00000KT 10SM CLR 17/01 A3004 RMK AO2 SLP130
T01670006





000
SAUS45 KTWC 261352
MTRSAD
METAR KSAD 261351Z AUTO 00000KT 10SM CLR 17/01 A3004 RMK AO2 SLP130
T01670006





000
SAUS45 KTWC 261252
MTRSAD
METAR KSAD 261251Z AUTO 00000KT 10SM CLR 14/01 A3002 RMK AO2 SLP122
T01440011





000
SAUS45 KTWC 261252
MTRSAD
METAR KSAD 261251Z AUTO 00000KT 10SM CLR 14/01 A3002 RMK AO2 SLP122
T01440011





000
SAUS45 KTWC 261152
MTRSAD
METAR KSAD 261151Z AUTO 10003KT 10SM CLR 14/01 A2999 RMK AO2 SLP114
T01390006 10206 20128 53004





000
SAUS45 KTWC 261052
MTRSAD
METAR KSAD 261051Z AUTO 09006KT 10SM CLR 13/01 A2998 RMK AO2 SLP109
T01330006





000
SAUS45 KTWC 260953
MTRSAD
METAR KSAD 260951Z AUTO 00000KT 10SM CLR 15/01 A2997 RMK AO2 SLP104
T01500011





000
SAUS45 KTWC 260853
MTRSAD
METAR KSAD 260851Z AUTO 31003KT 10SM CLR 16/01 A2998 RMK AO2 SLP106
T01610011 51004





000
SAUS45 KTWC 260853
MTRSAD
METAR KSAD 260851Z AUTO 31003KT 10SM CLR 16/01 A2998 RMK AO2 SLP106
T01610011 51004





000
SAUS45 KTWC 260752
MTRSAD
METAR KSAD 260751Z AUTO 29007KT 10SM CLR 18/02 A2997 RMK AO2 SLP103
T01830017





000
SAUS45 KTWC 260652
MTRSAD
METAR KSAD 260651Z AUTO 02003KT 10SM CLR 19/01 A2997 RMK AO2 SLP103
T01890011 403060100





000
SAUS45 KTWC 260652
MTRSAD
METAR KSAD 260651Z AUTO 02003KT 10SM CLR 19/01 A2997 RMK AO2 SLP103
T01890011 403060100





000
SAUS45 KTWC 260552
MTRSAD
METAR KSAD 260551Z AUTO 33008KT 10SM CLR 21/02 A2996 RMK AO2 SLP100
T02060017 10294 20206 51015





000
SAUS45 KTWC 260552
MTRSAD
METAR KSAD 260551Z AUTO 33008KT 10SM CLR 21/02 A2996 RMK AO2 SLP100
T02060017 10294 20206 51015





000
SAUS45 KTWC 260453
MTRSAD
METAR KSAD 260451Z AUTO 30008KT 10SM CLR 22/01 A2995 RMK AO2 SLP098
T02220011





000
SAUS45 KTWC 260353
MTRSAD
METAR KSAD 260351Z AUTO 32009KT 10SM CLR 23/01 A2993 RMK AO2 SLP092
T02280006





000
SAUS45 KTWC 260252
MTRSAD
METAR KSAD 260251Z AUTO 30012KT 10SM CLR 25/00 A2991 RMK AO2 SLP088
T02500000 53012





000
SAUS45 KTWC 260252
MTRSAD
METAR KSAD 260251Z AUTO 30012KT 10SM CLR 25/00 A2991 RMK AO2 SLP088
T02500000 53012





000
SAUS45 KTWC 260152
MTRSAD
METAR KSAD 260151Z AUTO 30015KT 10SM CLR 27/00 A2989 RMK AO2 SLP081
T02670000





000
SAUS45 KTWC 260052
MTRSAD
METAR KSAD 260051Z AUTO 27015KT 10SM CLR 28/01 A2988 RMK AO2 SLP078
T02830006





000
SAUS45 KTWC 252352
MTRSAD
METAR KSAD 252351Z AUTO 31015G20KT 10SM CLR 29/00 A2988 RMK AO2 PK
WND 34027/2302 SLP077 T02940000 10306 20256 56012





000
SAUS45 KTWC 252252
MTRSAD
METAR KSAD 252251Z AUTO 32013G23KT 10SM CLR 29/M02 A2988 RMK AO2 PK
WND 32026/2222 SLP077 T02941017





000
SAUS45 KTWC 252153
MTRSAD
METAR KSAD 252151Z AUTO 30015G26KT 10SM CLR 31/01 A2990 RMK AO2 PK
WND 29026/2148 SLP081 T03060006





000
SAUS45 KTWC 252153
MTRSAD
METAR KSAD 252151Z AUTO 30015G26KT 10SM CLR 31/01 A2990 RMK AO2 PK
WND 29026/2148 SLP081 T03060006





000
SAUS45 KTWC 252053
MTRSAD
METAR KSAD 252051Z AUTO 27008G18KT 220V300 10SM CLR 29/00 A2991 RMK
AO2 SLP087 T02890000 58016





000
SAUS45 KTWC 252053
MTRSAD
METAR KSAD 252051Z AUTO 27008G18KT 220V300 10SM CLR 29/00 A2991 RMK
AO2 SLP087 T02890000 58016





000
SAUS45 KTWC 251952
MTRSAD
METAR KSAD 251951Z AUTO 26009G19KT 10SM CLR 28/M01 A2993 RMK AO2
SLP094 T02831011





000
SAUS45 KTWC 251852
MTRSAD
METAR KSAD 251851Z AUTO 30011G18KT 10SM CLR 27/00 A2995 RMK AO2
SLP099 T02720000





000
SAUS45 KTWC 251752
MTRSAD
METAR KSAD 251751Z AUTO 34007KT 10SM CLR 26/00 A2997 RMK AO2 SLP105
T02560000 10256 20100 58006





000
SAUS45 KTWC 251653
MTRSAD
METAR KSAD 251651Z AUTO VRB05KT 10SM CLR 24/01 A2997 RMK AO2 SLP107
T02390011





000
SAUS45 KTWC 251552
MTRSAD
METAR KSAD 251551Z AUTO VRB04KT 10SM CLR 21/01 A2999 RMK AO2 SLP113
T02060011





000
SAUS45 KTWC 251452
MTRSAD
METAR KSAD 251451Z AUTO VRB03KT 10SM CLR 17/01 A2998 RMK AO2 SLP115
T01720011 53012





    US Dept of Commerce
    National Oceanic and Atmospheric Administration
    National Weather Service
    1325 East West Highway
    Silver Spring, MD 20910
    Page Author: NWS Internet Services Team
Disclaimer
Information Quality
Credits
Glossary
Privacy Policy
Freedom of Information Act (FOIA)
About Us
Career Opportunities